Time;durP1;ratioP1;P1;durP2;ratioP2;P2;SDS_P1;SDS_P2;PMS_P1;PMS_P2;Temp;Humidity;BMP_temperature;BMP_pressure;BME280_temperature;BME280_humidity;BME280_pressure;Samples;Min_cycle;Max_cycle;Signal;HPM_P1;HPM_P2
2023/06/13 00:01:12;;;;;;;11.18;9.85;;;;;;;28.16;42.83;100080.44;20992277;28;20438;-58
2023/06/13 00:11:14;;;;;;;11.18;10.00;;;;;;;28.15;42.75;100085.25;20991777;28;20044;-58
2023/06/13 00:21:15;;;;;;;11.10;9.63;;;;;;;28.15;42.64;100090.88;20992581;28;20418;-58
2023/06/13 00:31:17;;;;;;;10.75;9.65;;;;;;;28.16;42.92;100098.13;20991874;28;20040;-59
2023/06/13 00:41:19;;;;;;;12.00;9.70;;;;;;;28.16;42.77;100105.75;21006065;28;20067;-57
2023/06/13 00:51:20;;;;;;;10.45;8.90;;;;;;;28.15;43.01;100123.81;21007081;28;20053;-58
2023/06/13 01:01:22;;;;;;;9.77;8.77;;;;;;;28.16;43.16;100145.94;21005951;28;20031;-56
2023/06/13 01:11:45;;;;;;;9.88;8.85;;;;;;;28.13;43.11;100155.06;21004465;28;20438;-58
2023/06/13 01:21:48;;;;;;;9.43;8.40;;;;;;;28.14;43.27;100161.53;21004784;28;20430;-59
2023/06/13 01:31:55;;;;;;;8.85;7.93;;;;;;;28.18;42.98;100208.31;21004175;28;20041;-55
2023/06/13 01:41:56;;;;;;;8.88;7.85;;;;;;;28.17;42.96;100231.97;21003029;28;20443;-58
2023/06/13 01:52:19;;;;;;;9.07;8.15;;;;;;;28.13;42.97;100239.44;21003664;28;20040;-58
2023/06/13 02:02:21;;;;;;;8.60;7.72;;;;;;;28.10;42.89;100262.66;21001384;28;20033;-59
2023/06/13 02:12:22;;;;;;;8.60;7.53;;;;;;;28.19;42.96;100299.16;21001351;28;20116;-60
2023/06/13 02:22:27;;;;;;;8.10;6.72;;;;;;;28.15;42.74;100315.91;21001537;28;20094;-56
2023/06/13 02:32:29;;;;;;;6.63;6.03;;;;;;;28.17;42.96;100329.59;20999494;28;20040;-59
2023/06/13 02:42:30;;;;;;;7.13;6.43;;;;;;;28.19;42.81;100330.91;20998461;28;20053;-60
2023/06/13 02:52:31;;;;;;;7.20;6.50;;;;;;;28.18;42.67;100343.34;20997260;28;20090;-58
2023/06/13 03:02:36;;;;;;;6.15;5.55;;;;;;;28.12;42.93;100339.06;20996016;28;20122;-59
2023/06/13 03:12:39;;;;;;;6.28;5.68;;;;;;;28.18;43.01;100354.59;20995623;28;20040;-57
2023/06/13 03:22:40;;;;;;;6.07;5.50;;;;;;;28.19;42.84;100349.78;20995137;28;20028;-57
2023/06/13 03:32:41;;;;;;;5.90;5.30;;;;;;;28.16;42.99;100334.41;20994633;28;20056;-57
2023/06/13 03:42:43;;;;;;;5.35;4.68;;;;;;;28.17;42.99;100350.13;20994009;28;20071;-57
2023/06/13 03:52:45;;;;;;;5.28;4.57;;;;;;;28.18;42.89;100343.34;20993655;28;20040;-57
2023/06/13 04:02:47;;;;;;;4.88;4.40;;;;;;;28.14;42.78;100325.50;20992735;28;20037;-59
2023/06/13 04:12:48;;;;;;;4.82;4.22;;;;;;;28.17;42.64;100330.41;20991790;28;20055;-59
2023/06/13 04:22:51;;;;;;;4.70;4.30;;;;;;;28.00;42.72;100313.72;20991727;28;20037;-59
2023/06/13 04:32:52;;;;;;;4.82;4.20;;;;;;;28.14;42.52;100333.94;20990676;28;20044;-57
2023/06/13 04:42:54;;;;;;;4.50;4.10;;;;;;;28.15;42.72;100355.28;20990765;28;20063;-57
2023/06/13 04:52:56;;;;;;;3.63;3.33;;;;;;;28.14;42.82;100350.81;20989817;28;20067;-58
2023/06/13 05:03:00;;;;;;;3.50;3.20;;;;;;;28.13;42.61;100335.09;20990368;28;20545;-59
2023/06/13 05:13:04;;;;;;;3.40;3.10;;;;;;;28.12;42.63;100344.69;20989850;28;20024;-58
2023/06/13 05:23:05;;;;;;;3.15;2.85;;;;;;;28.12;42.43;100341.88;20995939;28;20043;-59
2023/06/13 05:33:06;;;;;;;3.95;3.55;;;;;;;28.12;42.57;100344.69;21003886;28;20480;-57
2023/06/13 05:43:09;;;;;;;3.75;3.33;;;;;;;28.10;42.59;100349.88;21002974;28;20383;-58
2023/06/13 05:53:10;;;;;;;2.92;2.65;;;;;;;28.09;42.42;100354.66;21002881;28;20078;-57
2023/06/13 06:03:13;;;;;;;2.80;2.50;;;;;;;28.06;42.53;100343.28;21001872;28;20460;-57
2023/06/13 06:13:15;;;;;;;2.50;2.30;;;;;;;28.08;42.19;100355.00;21000431;28;20476;-57
2023/06/13 06:23:16;;;;;;;3.20;2.90;;;;;;;27.99;42.07;100343.81;21000124;28;20037;-59
2023/06/13 06:33:17;;;;;;;3.10;2.83;;;;;;;28.05;42.27;100355.69;20998122;28;20093;-58
2023/06/13 06:43:19;;;;;;;3.65;2.50;;;;;;;28.05;42.12;100366.94;20998906;28;20102;-59
2023/06/13 06:53:20;;;;;;;2.70;2.47;;;;;;;28.01;42.37;100378.06;20997438;28;20033;-58
2023/06/13 07:03:34;;;;;;;2.90;2.60;;;;;;;27.94;42.17;100389.00;20997370;28;20039;-55
2023/06/13 07:13:47;;;;;;;2.97;2.72;;;;;;;27.99;42.20;100373.94;20995589;28;20070;-58
2023/06/13 07:23:48;;;;;;;3.40;2.55;;;;;;;28.01;42.13;100396.94;20995361;28;20067;-58
2023/06/13 07:33:50;;;;;;;2.90;2.60;;;;;;;27.86;41.94;100375.88;20994108;28;20131;-58
2023/06/13 07:43:52;;;;;;;2.75;2.33;;;;;;;27.98;41.79;100400.41;20993215;28;20040;-58
2023/06/13 07:53:53;;;;;;;2.53;2.33;;;;;;;27.97;42.12;100377.09;20993774;28;20048;-57
2023/06/13 08:03:54;;;;;;;2.97;2.35;;;;;;;27.92;41.96;100368.88;20992357;28;20070;-57
2023/06/13 08:13:59;;;;;;;2.17;2.03;;;;;;;27.95;41.70;100381.41;20992375;28;20045;-57
2023/06/13 08:24:00;;;;;;;2.30;2.10;;;;;;;27.89;41.81;100391.22;20992430;28;20033;-56
2023/06/13 08:34:02;;;;;;;2.00;1.83;;;;;;;27.91;41.67;100425.47;20991757;28;20040;-58
2023/06/13 08:44:03;;;;;;;2.60;2.40;;;;;;;27.90;41.83;100455.53;20991924;28;20122;-57
2023/06/13 08:54:05;;;;;;;2.55;2.35;;;;;;;27.86;41.74;100452.59;20992083;28;20066;-56
2023/06/13 09:04:08;;;;;;;2.60;2.40;;;;;;;27.84;41.49;100463.34;21005957;28;20071;-58
2023/06/13 09:14:10;;;;;;;2.22;2.03;;;;;;;27.86;41.65;100497.59;21005375;28;20041;-57
2023/06/13 09:24:12;;;;;;;2.47;2.28;;;;;;;27.86;41.58;100522.91;21004947;28;20078;-58
2023/06/13 09:34:15;;;;;;;2.20;2.00;;;;;;;27.85;41.40;100532.47;21004337;28;20097;-58
2023/06/13 09:44:16;;;;;;;2.38;2.17;;;;;;;27.82;41.33;100541.59;21002996;28;20458;-57
2023/06/13 09:54:21;;;;;;;2.38;2.17;;;;;;;27.80;41.58;100557.16;21002466;28;20105;-58
2023/06/13 10:04:23;;;;;;;2.22;2.00;;;;;;;27.80;41.37;100557.97;21001951;28;20033;-57
2023/06/13 10:14:27;;;;;;;2.28;2.08;;;;;;;27.81;41.29;100567.22;21000938;28;20545;-59
2023/06/13 10:24:29;;;;;;;1.75;1.65;;;;;;;27.79;41.26;100556.34;21000286;28;20036;-56
2023/06/13 10:34:45;;;;;;;2.13;1.92;;;;;;;27.78;41.20;100553.88;20999997;28;20537;-56
2023/06/13 10:45:01;;;;;;;2.33;2.13;;;;;;;27.73;41.23;100563.31;20998228;28;20040;-57
2023/06/13 10:55:02;;;;;;;2.58;2.10;;;;;;;27.75;41.32;100555.34;20997494;28;20028;-59
2023/06/13 11:05:04;;;;;;;2.50;2.30;;;;;;;27.74;40.94;100564.97;20997111;28;20037;-58
2023/06/13 11:15:21;;;;;;;2.03;1.85;;;;;;;27.71;40.93;100559.97;20996158;28;20046;-58
2023/06/13 11:25:23;;;;;;;1.80;1.70;;;;;;;27.73;41.09;100557.69;20994508;28;20036;-57
2023/06/13 11:35:28;;;;;;;2.38;2.17;;;;;;;27.63;40.91;100563.66;20994222;28;20045;-58
2023/06/13 11:45:30;;;;;;;2.78;2.20;;;;;;;27.72;40.89;100594.56;20993843;28;20456;-57
2023/06/13 11:55:35;;;;;;;2.13;2.00;;;;;;;27.70;40.83;100606.09;20992858;28;20094;-56
2023/06/13 12:05:36;;;;;;;2.50;2.30;;;;;;;27.70;40.91;100591.22;20992513;28;20036;-57
2023/06/13 12:15:39;;;;;;;2.58;2.25;;;;;;;27.54;40.75;100588.16;20992034;28;20095;-56
2023/06/13 12:25:41;;;;;;;2.28;2.08;;;;;;;27.61;40.57;100627.78;20990456;28;20058;-56
2023/06/13 12:36:09;;;;;;;2.75;2.50;;;;;;;27.59;40.65;100632.94;21003020;28;20101;-57
2023/06/13 12:46:12;;;;;;;2.78;2.58;;;;;;;27.66;40.73;100635.22;21006304;28;20045;-58
2023/06/13 12:56:15;;;;;;;2.63;2.40;;;;;;;27.65;40.71;100628.78;21007164;28;20051;-58
2023/06/13 13:06:17;;;;;;;2.72;2.53;;;;;;;27.66;40.67;100638.03;21006470;28;20041;-58
2023/06/13 13:16:19;;;;;;;2.53;2.33;;;;;;;27.65;40.39;100630.78;21005277;28;20110;-57
2023/06/13 13:26:20;;;;;;;3.45;2.67;;;;;;;27.65;40.71;100634.41;21004894;28;20037;-59
2023/06/13 13:36:22;;;;;;;2.85;2.38;;;;;;;27.63;40.47;100639.56;21004460;28;20083;-58
2023/06/13 13:46:23;;;;;;;3.05;2.75;;;;;;;27.63;40.58;100639.56;21002914;28;20570;-57
2023/06/13 13:56:28;;;;;;;2.67;2.47;;;;;;;27.63;40.46;100636.75;21001875;28;20445;-57
2023/06/13 14:06:29;;;;;;;2.65;2.45;;;;;;;27.62;40.40;100632.25;21002029;28;20037;-58
2023/06/13 14:16:39;;;;;;;3.00;2.70;;;;;;;27.62;40.52;100635.06;21000253;28;20040;-56
2023/06/13 14:26:40;;;;;;;3.00;2.70;;;;;;;27.61;40.19;100647.47;20999731;28;20391;-56
2023/06/13 14:36:43;;;;;;;2.40;2.20;;;;;;;27.58;40.45;100656.56;20999166;28;20036;-57
2023/06/13 14:46:44;;;;;;;3.30;3.00;;;;;;;27.61;40.34;100675.59;20998450;28;20041;-57
2023/06/13 14:56:45;;;;;;;3.00;2.70;;;;;;;27.61;40.18;100681.19;20995396;28;20036;-58
2023/06/13 15:06:49;;;;;;;3.95;3.08;;;;;;;27.61;40.05;100682.03;20996211;28;20048;-56
2023/06/13 15:16:51;;;;;;;3.20;2.90;;;;;;;27.61;40.12;100690.47;20995553;28;20141;-57
2023/06/13 15:26:53;;;;;;;3.28;2.97;;;;;;;27.62;39.93;100680.03;20994981;28;20027;-57
2023/06/13 15:37:00;;;;;;;3.60;3.30;;;;;;;27.61;40.07;100672.78;20994628;28;20377;-58
2023/06/13 15:47:01;;;;;;;3.20;2.90;;;;;;;27.62;39.91;100658.38;20993802;28;20101;-58
2023/06/13 15:57:03;;;;;;;3.60;3.30;;;;;;;27.61;39.70;100650.28;20992526;28;20411;-56
2023/06/13 16:07:05;;;;;;;5.05;3.53;;;;;;;27.61;39.79;100627.78;20993005;28;20044;-56
2023/06/13 16:17:07;;;;;;;3.63;3.28;;;;;;;27.63;39.90;100631.13;20992431;28;20102;-57
2023/06/13 16:27:08;;;;;;;4.10;3.70;;;;;;;27.63;39.97;100631.13;20991287;28;20040;-56
2023/06/13 16:37:09;;;;;;;3.75;3.35;;;;;;;27.62;39.71;100619.03;20991441;28;20044;-58
2023/06/13 16:47:14;;;;;;;3.80;3.50;;;;;;;27.66;39.92;100624.81;20991180;28;20605;-58
2023/06/13 16:57:15;;;;;;;5.43;3.75;;;;;;;27.66;39.75;100602.31;20990428;28;20101;-58
2023/06/13 17:07:30;;;;;;;4.22;3.83;;;;;;;27.62;39.94;100585.28;20989818;28;20032;-57
2023/06/13 17:17:33;;;;;;;4.32;3.60;;;;;;;27.67;39.95;100564.59;20991910;28;20045;-57
2023/06/13 17:27:35;;;;;;;4.07;3.67;;;;;;;27.68;39.98;100540.16;21005426;28;20076;-58
2023/06/13 17:37:36;;;;;;;4.50;4.10;;;;;;;27.66;39.82;100532.03;21003381;28;20032;-58
2023/06/13 17:47:41;;;;;;;4.28;3.88;;;;;;;27.67;39.95;100525.25;21002934;28;20037;-58
2023/06/13 17:57:42;;;;;;;4.20;3.80;;;;;;;27.65;39.96;100521.16;21002597;28;20070;-57
2023/06/13 18:07:43;;;;;;;4.32;3.92;;;;;;;27.60;39.98;100485.63;21001703;28;20058;-59
2023/06/13 18:17:46;;;;;;;3.67;3.38;;;;;;;27.64;40.06;100486.59;21000559;28;20060;-59
2023/06/13 18:27:47;;;;;;;4.68;4.25;;;;;;;27.70;39.95;100499.28;21000314;28;20396;-56
2023/06/13 18:37:49;;;;;;;4.85;3.80;;;;;;;27.72;40.04;100485.78;20999559;28;20063;-56
2023/06/13 18:47:51;;;;;;;4.72;4.03;;;;;;;27.68;40.02;100473.50;20997270;28;20040;-59
2023/06/13 18:57:53;;;;;;;4.18;3.78;;;;;;;27.71;40.13;100474.81;20997155;28;20078;-58
2023/06/13 19:07:54;;;;;;;4.15;3.50;;;;;;;27.74;40.30;100458.13;20996962;28;20037;-57
2023/06/13 19:17:56;;;;;;;4.53;4.13;;;;;;;27.64;40.09;100441.63;20996198;28;20052;-59
2023/06/13 19:27:58;;;;;;;4.30;3.90;;;;;;;27.74;39.99;100441.25;20994937;28;20045;-58
2023/06/13 19:38:03;;;;;;;4.22;3.80;;;;;;;27.73;40.23;100442.44;20993804;28;20128;-56
2023/06/13 19:48:08;;;;;;;4.07;3.72;;;;;;;27.73;40.36;100439.63;20994435;28;20044;-58
2023/06/13 19:58:09;;;;;;;4.05;3.65;;;;;;;27.60;40.43;100399.31;20994148;28;20048;-57
2023/06/13 20:08:15;;;;;;;4.30;3.90;;;;;;;27.75;40.29;100413.97;20993106;28;20056;-55
2023/06/13 20:18:23;;;;;;;4.65;4.25;;;;;;;27.68;40.39;100406.06;20991380;28;20040;-57
2023/06/13 20:28:24;;;;;;;4.60;4.20;;;;;;;27.75;40.62;100426.03;20992090;28;20052;-59
2023/06/13 20:38:27;;;;;;;4.40;4.00;;;;;;;27.67;40.36;100401.56;20990820;28;20036;-57
2023/06/13 20:48:29;;;;;;;4.80;4.30;;;;;;;27.75;40.49;100414.78;20989194;28;20037;-58
2023/06/13 20:58:31;;;;;;;4.40;4.00;;;;;;;27.76;40.52;100410.81;21005140;28;20044;-58
2023/06/13 21:08:33;;;;;;;4.95;4.45;;;;;;;27.75;40.63;100416.78;21005942;28;20135;-58
2023/06/13 21:18:37;;;;;;;4.30;3.90;;;;;;;27.76;40.17;100416.44;21005487;28;20045;-58
2023/06/13 21:28:38;;;;;;;5.00;4.50;;;;;;;27.76;40.35;100409.97;21004490;28;20090;-58
2023/06/13 21:38:40;;;;;;;4.60;4.20;;;;;;;27.76;40.44;100413.63;21003965;28;20067;-58
2023/06/13 21:48:42;;;;;;;4.90;4.20;;;;;;;27.76;40.06;100407.16;21003256;28;20368;-57
2023/06/13 21:58:43;;;;;;;4.07;3.67;;;;;;;27.73;39.99;100417.13;21001642;28;20106;-58
2023/06/13 22:08:45;;;;;;;4.13;3.72;;;;;;;27.64;40.31;100398.63;21000414;28;20091;-57
2023/06/13 22:18:46;;;;;;;4.72;4.07;;;;;;;27.76;40.04;100429.66;21000114;28;20051;-58
2023/06/13 22:28:48;;;;;;;4.70;4.30;;;;;;;27.74;39.70;100418.78;20999759;28;20078;-57
2023/06/13 22:38:49;;;;;;;4.15;3.80;;;;;;;27.76;39.89;100430.47;21000739;28;20048;-59
2023/06/13 22:48:53;;;;;;;4.13;3.72;;;;;;;27.76;39.82;100436.09;20997828;28;20048;-57
2023/06/13 22:58:54;;;;;;;4.45;4.05;;;;;;;27.74;39.87;100434.81;20997223;28;20180;-59
2023/06/13 23:08:55;;;;;;;4.75;4.25;;;;;;;27.75;40.00;100445.72;20996904;28;20036;-58
2023/06/13 23:18:57;;;;;;;4.65;4.10;;;;;;;27.70;39.93;100428.19;20994500;28;20070;-57
2023/06/13 23:28:59;;;;;;;4.40;3.97;;;;;;;27.73;39.48;100444.41;20995329;28;20071;-57
2023/06/13 23:39:01;;;;;;;4.40;4.00;;;;;;;27.75;39.77;100447.69;20994138;28;20098;-59
2023/06/13 23:49:06;;;;;;;5.28;4.47;;;;;;;27.72;39.33;100449.22;20993227;28;20037;-57
2023/06/13 23:59:07;;;;;;;4.57;4.10;;;;;;;27.74;39.62;100455.31;20993717;28;20040;-58
